Flight Number: EUR1096 Duration: 3:30
Departure: Heraklion (Crete) (LGIR) at 18:30 Distance: 1449 Nm
Arrival: Gatwick Airport (EGKK) at 22:00 Equipment: MD-81

Weather Information
Heraklion Airport , Greece (LGIR) 35-20N 025-11E 39M Aug 19, 2018 - 04:50 AM EDT / 2018.08.19 0850 UTC
Wind: from the NW (310 degrees) at 20 MPH (17 KT):0
Visibility: greater than 7 mile(s):0
Sky conditions: partly cloudy Temperature: 86 F (30 C) Heat index: 91.8 F (33.2 C):1 Dew Point: 71 F (22 C) Relative Humidity: 62% Pressure (altimeter): 29.80 in. Hg (1009 hPa)
ob: LGIR 190850Z 31017KT 9999 SCT020 30/22 Q1009 NOSIG cycle: 9
Sunrise: 03:45 Sunset: 17:00 (UTC)

London / Gatwick Airport, United Kingdom (EGKK) 51-09N 000-11W 0M Aug 19, 2018 - 04:50 AM EDT / 2018.08.19 0850 UTC
Wind: from the SW (220 degrees) at 13 MPH (11 KT) (direction variable):0
Visibility: greater than 7 mile(s):0
Sky conditions: mostly cloudy Temperature: 64 F (18 C) Dew Point: 59 F (15 C) Relative Humidity: 82% Pressure (altimeter): 30.09 in. Hg (1019 hPa)
ob: EGKK 190850Z 22011KT 180V250 9999 BKN013 18/15 Q1019 cycle: 9
Sunrise: 04:58 Sunset: 19:10 (UTC)

TAF:2018/08/19 06:20 TAF EGKK 190458Z 1906/2012 22008KT 9999 BKN020 TEMPO 1906/1915 BKN010 PROB30 TEMPO 1906/1914 7000 -DZ BKN007 PROB30 TEMPO 1911/1915 22015G25KT PROB30 TEMPO 2002/2008 5000 HZ BKN006

Previous Pireps for this route
Date Aircraft Flight time Fuel used Landing rate On time
2013-10-27A32104.2327006-181Charter
2015-01-01MD-813.53245290No
2015-03-25MD-8103.4325616-374Yes
(pireps marked green are flown by you)

Route map